Aviation Digital Data Service (ADDS)

Output produced by TAFs form (1922 UTC 04 May 2016)
found at http://www.aviationweather.gov/adds/tafs/
 
KPOU 041738Z 0418/0518 05005KT P6SM VCSH OVC020 
     TEMPO 0418/0422 3SM -RA BR OVC010 
     FM042300 05006KT P6SM VCSH OVC015 
     FM050600 03006KT 3SM -DZ BR SCT005 OVC010 
     FM051200 02007KT P6SM SCT008 OVC015 
     FM051600 02008KT P6SM SCT015 OVC030